Time;durP1;ratioP1;P1;durP2;ratioP2;P2;SDS_P1;SDS_P2;PMS_P1;PMS_P2;Temp;Humidity;BMP_temperature;BMP_pressure;BME280_temperature;BME280_humidity;BME280_pressure;Samples;Min_cycle;Max_cycle;Signal;HPM_P1;HPM_P2
2022/02/02 00:01:56;;;;;;;82.72;77.35;;;;;;;1.24;100.00;100458.16;5154287;27;20055;-82
2022/02/02 00:04:27;;;;;;;90.80;84.53;;;;;;;1.23;100.00;100453.91;5154594;27;20055;-83
2022/02/02 00:07:05;;;;;;;89.38;83.13;;;;;;;1.07;100.00;100452.81;5162801;27;20074;-82
2022/02/02 00:09:34;;;;;;;70.80;66.07;;;;;;;1.07;100.00;100449.38;5154979;27;20110;-82
2022/02/02 00:12:13;;;;;;;68.38;63.75;;;;;;;1.20;100.00;100449.81;5162052;27;20126;-83
2022/02/02 00:14:51;;;;;;;50.05;46.33;;;;;;;1.18;100.00;100443.06;5161168;27;20038;-83
2022/02/02 00:17:36;;;;;;;51.35;47.55;;;;;;;1.07;100.00;100444.16;5156573;27;20056;-83
2022/02/02 00:20:15;;;;;;;53.03;48.65;;;;;;;1.20;100.00;100436.72;5158836;27;20143;-82
2022/02/02 00:22:43;;;;;;;79.22;74.07;;;;;;;1.16;100.00;100440.63;5164818;27;20069;-83
2022/02/02 00:25:15;;;;;;;76.68;70.85;;;;;;;1.08;100.00;100440.53;5154596;27;20066;-83
2022/02/02 00:27:48;;;;;;;88.50;82.38;;;;;;;1.21;100.00;100437.53;5161924;27;20089;-83
2022/02/02 00:30:19;;;;;;;73.35;68.75;;;;;;;1.13;100.00;100446.97;5163485;27;20039;-82
2022/02/02 00:33:00;;;;;;;71.50;66.45;;;;;;;1.20;100.00;100436.72;5151136;27;20101;-83
2022/02/02 00:35:31;;;;;;;52.50;47.83;;;;;;;1.25;100.00;100444.94;5162073;27;20054;-83
2022/02/02 00:37:58;;;;;;;53.93;50.30;;;;;;;1.05;100.00;100444.28;5162709;27;20106;-83
2022/02/02 00:40:25;;;;;;;57.50;52.75;;;;;;;1.13;100.00;100440.94;5167038;27;20082;-83
2022/02/02 00:42:53;;;;;;;108.18;101.15;;;;;;;1.20;100.00;100438.53;5163755;27;20042;-82
2022/02/02 00:45:24;;;;;;;91.78;85.95;;;;;;;1.09;100.00;100437.78;5160203;27;20466;-82
2022/02/02 00:47:51;;;;;;;80.50;75.00;;;;;;;1.01;100.00;100436.91;5161322;27;20061;-83
2022/02/02 00:50:18;;;;;;;81.13;75.05;;;;;;;1.07;100.00;100439.72;5162237;27;20053;-82
2022/02/02 00:52:50;;;;;;;92.25;86.53;;;;;;;1.12;100.00;100428.78;5146396;27;20462;-83
2022/02/02 00:55:17;;;;;;;84.68;79.07;;;;;;;1.04;100.00;100431.38;5141364;27;20089;-82
2022/02/02 00:57:47;;;;;;;91.03;85.03;;;;;;;1.17;100.00;100423.13;5145953;27;20395;-83
2022/02/02 01:00:16;;;;;;;55.30;50.75;;;;;;;1.26;100.00;100416.97;5148588;27;20114;-81
2022/02/02 01:02:43;;;;;;;55.08;50.33;;;;;;;1.26;100.00;100407.34;5148748;27;20535;-82
2022/02/02 01:05:10;;;;;;;52.53;48.47;;;;;;;1.06;100.00;100405.88;5149819;27;20061;-83
2022/02/02 01:07:58;;;;;;;80.60;75.30;;;;;;;1.03;100.00;100404.41;5149287;27;20099;-83
2022/02/02 01:10:34;;;;;;;90.53;83.85;;;;;;;1.02;100.00;100402.72;5140903;27;20142;-83
2022/02/02 01:13:20;;;;;;;75.00;69.50;;;;;;;1.10;100.00;100410.66;5137431;27;20051;-83
2022/02/02 01:18:36;;;;;;;54.55;49.75;;;;;;;1.03;100.00;100398.31;5136224;27;20130;-84
2022/02/02 01:21:05;;;;;;;74.82;69.13;;;;;;;1.03;100.00;100393.94;5146760;27;20061;-83
2022/02/02 01:29:02;;;;;;;49.10;45.10;;;;;;;0.95;100.00;100374.75;5142549;27;20409;-83
2022/02/02 01:31:31;;;;;;;85.55;79.65;;;;;;;0.99;100.00;100374.28;5144996;27;20107;-83
2022/02/02 01:33:57;;;;;;;87.72;80.95;;;;;;;0.88;100.00;100372.72;5149567;27;20054;-81
2022/02/02 01:36:24;;;;;;;91.15;83.65;;;;;;;0.99;100.00;100376.88;5144851;27;20047;-83
2022/02/02 01:38:55;;;;;;;79.57;74.22;;;;;;;0.94;100.00;100373.91;5144229;27;20382;-82
2022/02/02 01:41:28;;;;;;;87.20;80.45;;;;;;;1.03;100.00;100357.31;5138081;27;20054;-82
2022/02/02 01:44:09;;;;;;;83.50;76.88;;;;;;;1.06;100.00;100346.53;5143009;27;20059;-83
2022/02/02 01:46:38;;;;;;;89.80;81.75;;;;;;;0.94;100.00;100355.63;5144758;27;20042;-81
2022/02/02 01:52:17;;;;;;;84.32;77.68;;;;;;;0.98;100.00;100353.50;5146140;27;20031;-82
2022/02/02 01:54:56;;;;;;;73.47;67.30;;;;;;;0.90;100.00;100346.41;5118660;27;20047;-82
2022/02/02 01:57:51;;;;;;;70.65;64.60;;;;;;;0.99;100.00;100345.50;5146371;27;20050;-82
2022/02/02 02:00:19;;;;;;;69.10;63.22;;;;;;;0.99;100.00;100339.44;5139461;27;20042;-83
2022/02/02 02:02:47;;;;;;;71.97;65.93;;;;;;;0.97;100.00;100333.53;5140602;27;20051;-83
2022/02/02 02:05:14;;;;;;;82.80;74.40;;;;;;;0.96;100.00;100347.59;5146838;27;20043;-83
2022/02/02 02:07:41;;;;;;;69.45;63.05;;;;;;;0.93;100.00;100338.25;5147668;27;20107;-83
2022/02/02 02:10:08;;;;;;;74.88;68.70;;;;;;;0.97;100.00;100331.78;5138499;27;20111;-83
2022/02/02 02:12:45;;;;;;;77.53;71.47;;;;;;;0.94;100.00;100342.53;5146101;27;20483;-83
2022/02/02 02:15:14;;;;;;;52.13;47.03;;;;;;;0.97;100.00;100344.00;5143295;27;20050;-82
2022/02/02 02:17:41;;;;;;;50.28;44.90;;;;;;;0.98;100.00;100343.06;5146560;27;20046;-81
2022/02/02 02:20:13;;;;;;;52.65;47.70;;;;;;;0.93;100.00;100340.06;5145116;27;20460;-83
2022/02/02 02:22:43;;;;;;;53.22;48.35;;;;;;;0.94;100.00;100337.31;5148331;27;20119;-82
2022/02/02 02:25:10;;;;;;;50.30;44.80;;;;;;;0.93;100.00;100340.06;5138934;27;20113;-82
2022/02/02 02:27:37;;;;;;;48.95;44.33;;;;;;;0.90;100.00;100342.00;5134851;27;20093;-82
2022/02/02 02:30:21;;;;;;;56.55;50.80;;;;;;;0.94;100.00;100336.47;5139614;27;20057;-82
2022/02/02 02:38:44;;;;;;;54.47;48.70;;;;;;;0.67;100.00;100331.22;5142318;27;20054;-82
2022/02/02 02:57:54;;;;;;;49.55;42.85;;;;;;;0.68;100.00;100332.84;5139044;27;20201;-82
2022/02/02 03:30:20;;;;;;;54.10;49.13;;;;;;;0.63;100.00;100340.31;5106905;28;20042;-83
2022/02/02 03:52:51;;;;;;;81.32;68.40;;;;;;;0.42;100.00;100324.97;5120887;27;20399;-83
2022/02/02 03:55:23;;;;;;;55.42;49.38;;;;;;;0.50;100.00;100326.00;5096038;28;20048;-82
2022/02/02 03:57:58;;;;;;;54.38;49.05;;;;;;;0.38;100.00;100323.59;5105085;28;20146;-83
2022/02/02 04:00:38;;;;;;;59.33;53.25;;;;;;;0.54;100.00;100322.91;5111455;28;20078;-81
2022/02/02 04:06:04;;;;;;;56.42;49.42;;;;;;;0.49;100.00;100325.19;5074985;28;20127;-81
2022/02/02 04:08:35;;;;;;;58.03;51.90;;;;;;;0.33;100.00;100332.84;5090917;28;20109;-81
2022/02/02 04:11:10;;;;;;;51.67;46.58;;;;;;;0.40;100.00;100326.09;5090071;28;20044;-82
2022/02/02 04:52:20;;;;;;;49.25;44.28;;;;;;;0.35;100.00;100333.53;5088259;28;20477;-82
2022/02/02 04:54:54;;;;;;;52.55;47.83;;;;;;;0.32;100.00;100329.44;5072659;28;20049;-82
2022/02/02 04:58:01;;;;;;;52.20;47.47;;;;;;;0.44;100.00;100335.25;5075637;28;20044;-82
2022/02/02 05:06:08;;;;;;;51.95;46.78;;;;;;;0.47;100.00;100331.53;5063568;28;20562;-82
2022/02/02 05:08:41;;;;;;;47.83;43.28;;;;;;;0.43;100.00;100333.63;5075961;28;20127;-82
2022/02/02 05:11:42;;;;;;;57.05;51.08;;;;;;;0.53;100.00;100333.53;5076420;28;20427;-83
2022/02/02 05:20:08;;;;;;;51.92;46.80;;;;;;;0.41;100.00;100330.31;5071893;28;20392;-82
2022/02/02 05:23:26;;;;;;;54.03;48.45;;;;;;;0.33;100.00;100328.44;5072819;28;20397;-83
2022/02/02 05:50:44;;;;;;;57.15;46.30;;;;;;;0.54;100.00;100359.50;5084238;28;20051;-82
2022/02/02 05:53:11;;;;;;;63.13;51.28;;;;;;;0.63;100.00;100361.22;5086225;28;20107;-82
2022/02/02 05:55:41;;;;;;;53.83;47.42;;;;;;;0.57;100.00;100361.00;5082754;28;20048;-82
2022/02/02 05:58:10;;;;;;;74.05;58.88;;;;;;;0.52;100.00;100358.03;5082005;28;20117;-81
2022/02/02 06:00:40;;;;;;;72.60;56.85;;;;;;;0.51;100.00;100366.81;5080246;28;20047;-82
2022/02/02 06:03:16;;;;;;;58.28;52.17;;;;;;;0.65;100.00;100371.53;5080934;28;20037;-82
2022/02/02 06:05:44;;;;;;;57.83;51.53;;;;;;;0.59;100.00;100375.56;5071771;28;20516;-83
2022/02/02 06:08:12;;;;;;;49.42;44.15;;;;;;;0.55;100.00;100374.25;5080715;28;20476;-81
2022/02/02 06:10:42;;;;;;;51.90;46.75;;;;;;;0.60;100.00;100373.78;5079251;28;20464;-82
2022/02/02 06:13:09;;;;;;;50.08;45.10;;;;;;;0.49;100.00;100371.41;5083214;28;20047;-82
2022/02/02 06:15:36;;;;;;;50.88;45.38;;;;;;;0.47;100.00;100375.94;5080638;28;20040;-83
2022/02/02 06:18:05;;;;;;;49.10;40.50;;;;;;;0.57;100.00;100374.06;5083920;28;20052;-82
2022/02/02 06:20:34;;;;;;;51.72;46.17;;;;;;;0.58;100.00;100376.56;5079182;28;20063;-83
2022/02/02 06:23:07;;;;;;;53.58;46.40;;;;;;;0.66;100.00;100373.19;5073398;28;20139;-83
2022/02/02 06:25:35;;;;;;;55.22;49.35;;;;;;;0.66;100.00;100381.00;5073315;28;20044;-82
2022/02/02 06:28:06;;;;;;;68.15;53.78;;;;;;;0.99;100.00;100376.06;5067096;28;20041;-81
2022/02/02 06:30:35;;;;;;;52.53;47.25;;;;;;;1.54;100.00;100374.00;5063241;28;20500;-80
2022/02/02 06:33:05;;;;;;;56.55;50.72;;;;;;;0.68;100.00;100379.09;5064023;28;20045;-82
2022/02/02 06:35:36;;;;;;;54.47;48.63;;;;;;;0.53;100.00;100384.00;5074346;28;20516;-82
2022/02/02 06:38:03;;;;;;;55.38;49.33;;;;;;;0.41;100.00;100380.78;5075203;28;20052;-82
2022/02/02 06:40:30;;;;;;;60.65;49.40;;;;;;;0.47;100.00;100382.00;5074622;28;20044;-82
2022/02/02 06:42:57;;;;;;;58.72;49.63;;;;;;;0.56;100.00;100375.88;5073956;28;20049;-81
2022/02/02 06:45:24;;;;;;;56.92;49.28;;;;;;;0.57;100.00;100376.69;5069676;28;20476;-81
2022/02/02 06:47:52;;;;;;;87.55;63.28;;;;;;;0.59;100.00;100380.81;5063295;28;20053;-82
2022/02/02 06:50:23;;;;;;;61.40;49.85;;;;;;;0.59;100.00;100388.63;5073219;28;20476;-81
2022/02/02 06:53:06;;;;;;;58.13;49.95;;;;;;;0.50;100.00;100378.25;5067524;28;20405;-82
2022/02/02 06:55:40;;;;;;;;;;;;;;;0.62;100.00;100377.88;5064116;28;20049;-81
2022/02/02 06:58:21;;;;;;;91.80;69.47;;;;;;;0.54;100.00;100376.97;5064866;28;19920;-81
2022/02/02 07:01:03;;;;;;;55.22;48.20;;;;;;;0.60;100.00;100374.59;5066949;28;20041;-83
2022/02/02 07:03:46;;;;;;;57.58;48.08;;;;;;;0.56;100.00;100368.03;5073577;28;20044;-81
2022/02/02 07:06:23;;;;;;;55.28;48.38;;;;;;;0.48;100.00;100370.56;5063182;28;20100;-81
2022/02/02 07:09:14;;;;;;;58.85;50.53;;;;;;;0.64;100.00;100364.69;5072969;28;20040;-82
2022/02/02 07:11:57;;;;;;;53.38;46.83;;;;;;;0.63;100.00;100363.84;5069540;28;20036;-81
2022/02/02 07:14:36;;;;;;;51.40;46.08;;;;;;;0.61;100.00;100371.03;5072498;28;20060;-82
2022/02/02 07:17:16;;;;;;;50.83;45.38;;;;;;;0.45;100.00;100368.25;5074511;28;20155;-85
2022/02/02 07:19:55;;;;;;;51.20;45.72;;;;;;;0.50;100.00;100375.66;5066863;28;20064;-81
2022/02/02 07:22:41;;;;;;;51.25;45.92;;;;;;;0.44;100.00;100370.03;5074857;28;20406;-81
2022/02/02 07:25:37;;;;;;;51.55;46.08;;;;;;;0.33;100.00;100370.25;5055868;28;20049;-82
2022/02/02 07:28:09;;;;;;;49.88;44.42;;;;;;;0.58;100.00;100373.94;5072013;28;20051;-81
2022/02/02 07:30:49;;;;;;;;;;;;;;;0.51;100.00;100377.28;5066507;28;20454;-82
2022/02/02 07:33:24;;;;;;;54.58;48.85;;;;;;;0.85;100.00;100378.25;5070461;28;19960;-82
2022/02/02 07:36:02;;;;;;;54.13;48.30;;;;;;;0.78;100.00;100376.38;5065125;28;20052;-81
2022/02/02 07:38:39;;;;;;;57.15;49.30;;;;;;;0.82;100.00;100375.13;5074056;28;20045;-82
2022/02/02 07:41:13;;;;;;;49.90;45.05;;;;;;;0.58;100.00;100367.91;5073195;28;20063;-81
2022/02/02 07:43:45;;;;;;;50.13;45.40;;;;;;;3.16;100.00;100376.28;5066652;28;20056;-83
2022/02/02 07:46:14;;;;;;;59.00;53.45;;;;;;;2.15;100.00;100376.50;5065976;28;20051;-82
2022/02/02 07:48:42;;;;;;;60.83;55.35;;;;;;;1.78;100.00;100373.25;5063926;28;20051;-83
2022/02/02 07:51:10;;;;;;;56.42;51.53;;;;;;;2.10;100.00;100369.13;5068112;28;20049;-83
2022/02/02 07:53:42;;;;;;;55.47;50.83;;;;;;;2.53;100.00;100375.94;5074028;28;20053;-82
2022/02/02 07:56:14;;;;;;;61.97;56.95;;;;;;;1.83;100.00;100368.38;5064316;28;20132;-82
2022/02/02 07:58:44;;;;;;;61.30;56.08;;;;;;;0.89;100.00;100350.00;5070245;28;20083;-82
2022/02/02 08:01:13;;;;;;;57.10;51.80;;;;;;;0.57;100.00;100355.78;5072238;28;20151;-81
2022/02/02 08:03:42;;;;;;;54.58;49.58;;;;;;;0.71;100.00;100352.66;5068641;28;20044;-82
2022/02/02 08:06:11;;;;;;;55.42;50.22;;;;;;;0.73;100.00;100348.09;5073959;28;20076;-81
2022/02/02 08:08:41;;;;;;;55.60;49.63;;;;;;;0.90;100.00;100342.00;5069617;28;20053;-82
2022/02/02 08:11:11;;;;;;;56.08;50.38;;;;;;;0.55;100.00;100339.44;5058521;28;20040;-82
2022/02/02 08:13:41;;;;;;;53.92;48.53;;;;;;;0.74;100.00;100338.47;5068202;28;20559;-82
2022/02/02 08:16:11;;;;;;;52.15;47.13;;;;;;;0.93;100.00;100345.28;5073855;28;20048;-82
2022/02/02 08:18:40;;;;;;;55.83;49.80;;;;;;;0.58;100.00;100344.38;5073589;28;20049;-81
2022/02/02 08:21:06;;;;;;;55.60;49.60;;;;;;;0.86;100.00;100351.13;5073070;28;20191;-80
2022/02/02 08:23:34;;;;;;;57.05;50.95;;;;;;;0.77;100.00;100349.44;5071398;28;20102;-81
2022/02/02 08:26:04;;;;;;;58.83;49.70;;;;;;;1.03;100.00;100356.47;5072850;28;20390;-82
2022/02/02 08:28:32;;;;;;;50.03;44.90;;;;;;;1.36;100.00;100358.34;5072295;28;20049;-81
2022/02/02 08:31:00;;;;;;;53.50;47.70;;;;;;;1.03;100.00;100357.31;5073053;28;20431;-82
2022/02/02 08:33:33;;;;;;;63.20;50.83;;;;;;;1.19;100.00;100351.38;5069414;28;20044;-80
2022/02/02 08:35:59;;;;;;;55.30;49.35;;;;;;;0.94;100.00;100347.78;5062202;28;20045;-82
2022/02/02 08:38:43;;;;;;;59.67;50.63;;;;;;;1.03;100.00;100352.09;5076216;28;20051;-81
2022/02/02 08:41:13;;;;;;;63.53;53.58;;;;;;;1.26;100.00;100351.56;5076519;28;20044;-82
2022/02/02 08:43:46;;;;;;;57.80;49.70;;;;;;;1.29;100.00;100348.63;5073130;28;20060;-82
2022/02/02 08:46:21;;;;;;;63.25;52.63;;;;;;;1.18;100.00;100359.34;5072372;28;20087;-82
2022/02/02 08:48:51;;;;;;;60.35;51.72;;;;;;;1.14;100.00;100357.03;5072389;28;20044;-82
2022/02/02 08:51:20;;;;;;;59.38;51.58;;;;;;;1.01;100.00;100359.25;5074740;28;20113;-81
2022/02/02 08:53:58;;;;;;;62.38;53.47;;;;;;;1.01;100.00;100356.63;5077054;28;20048;-83
2022/02/02 08:56:52;;;;;;;72.65;64.60;;;;;;;1.44;100.00;100359.34;5076492;28;20060;-82
2022/02/02 08:59:26;;;;;;;65.25;58.80;;;;;;;1.51;100.00;100361.22;5076628;28;20044;-82
2022/02/02 09:01:56;;;;;;;67.50;61.10;;;;;;;1.56;100.00;100363.34;5076480;28;20049;-81
2022/02/02 09:07:16;;;;;;;65.45;59.08;;;;;;;1.90;100.00;100345.00;5032930;28;20056;-82
2022/02/02 09:09:54;;;;;;;60.88;55.10;;;;;;;1.40;100.00;100344.94;5078671;28;20040;-81
2022/02/02 09:24:01;;;;;;;56.53;50.70;;;;;;;2.02;100.00;100345.53;4998948;28;20064;-82
2022/02/02 09:32:27;;;;;;;60.60;54.88;;;;;;;2.44;100.00;100331.53;5075909;28;20205;-82
2022/02/02 09:34:55;;;;;;;62.30;56.22;;;;;;;2.65;100.00;100326.63;5075852;28;20443;-82
2022/02/02 09:37:23;;;;;;;63.50;57.33;;;;;;;2.45;100.00;100323.53;5077284;28;20067;-81
2022/02/02 09:40:00;;;;;;;68.22;61.40;;;;;;;2.62;100.00;100324.34;5076179;28;20416;-82
2022/02/02 09:42:32;;;;;;;63.25;57.33;;;;;;;2.63;100.00;100328.63;5075092;28;20048;-82
2022/02/02 09:45:06;;;;;;;62.08;56.28;;;;;;;2.40;100.00;100317.13;5067038;28;20056;-82
2022/02/02 09:47:42;;;;;;;75.90;69.03;;;;;;;2.68;100.00;100315.00;5070104;28;20056;-80
2022/02/02 09:50:21;;;;;;;76.97;70.20;;;;;;;2.50;100.00;100323.03;5070251;28;20052;-82
2022/02/02 09:52:54;;;;;;;76.75;69.32;;;;;;;2.38;100.00;100312.03;5076204;28;20181;-81
2022/02/02 09:55:45;;;;;;;86.82;79.43;;;;;;;2.64;100.00;100309.25;5075782;28;20083;-82
2022/02/02 09:58:33;;;;;;;74.65;68.20;;;;;;;2.61;100.00;100304.34;5069476;28;20054;-82
2022/02/02 10:01:39;;;;;;;79.07;72.53;;;;;;;3.24;100.00;100294.94;5069349;28;20052;-82
2022/02/02 10:04:30;;;;;;;70.05;63.78;;;;;;;2.97;100.00;100301.38;5070261;28;21678;-82
2022/02/02 10:07:25;;;;;;;69.85;63.38;;;;;;;2.41;100.00;100295.16;5075356;28;20048;-82
2022/02/02 10:10:15;;;;;;;74.55;68.15;;;;;;;2.88;100.00;100290.06;5074571;28;20485;-81
2022/02/02 10:13:16;;;;;;;71.25;65.22;;;;;;;2.70;100.00;100287.63;5075304;28;20037;-82
2022/02/02 10:15:43;;;;;;;77.13;70.10;;;;;;;2.55;100.00;100278.78;5071848;28;20036;-81
2022/02/02 10:18:16;;;;;;;74.63;67.68;;;;;;;2.51;100.00;100282.69;5078208;28;20133;-81
2022/02/02 10:20:45;;;;;;;70.22;63.88;;;;;;;2.62;100.00;100290.25;5069872;28;20044;-83
2022/02/02 10:23:14;;;;;;;76.35;69.78;;;;;;;2.57;100.00;100294.34;5069051;28;20118;-83
2022/02/02 10:25:46;;;;;;;64.13;57.60;;;;;;;2.32;100.00;100288.28;5069122;28;20056;-82
2022/02/02 10:28:16;;;;;;;68.93;58.85;;;;;;;2.50;100.00;100296.81;5070690;28;20052;-82
2022/02/02 10:30:46;;;;;;;61.80;55.28;;;;;;;2.37;100.00;100294.66;5073888;28;20051;-81
2022/02/02 10:33:14;;;;;;;64.15;53.42;;;;;;;2.21;100.00;100302.50;5066674;28;20050;-83
2022/02/02 10:35:42;;;;;;;63.17;56.45;;;;;;;2.22;100.00;100285.81;5075684;28;20048;-82
2022/02/02 10:38:13;;;;;;;63.25;56.72;;;;;;;2.39;100.00;100295.34;5062062;28;20423;-83
2022/02/02 10:40:48;;;;;;;62.47;56.28;;;;;;;2.19;100.00;100294.00;5073849;28;20041;-82
2022/02/02 10:43:30;;;;;;;66.35;59.13;;;;;;;2.14;100.00;100283.97;5074454;28;20094;-82
2022/02/02 10:45:57;;;;;;;63.67;55.88;;;;;;;2.27;100.00;100288.78;5069130;28;20052;-82
2022/02/02 10:48:38;;;;;;;80.35;72.50;;;;;;;2.01;100.00;100292.31;5074644;28;20610;-82
2022/02/02 10:51:12;;;;;;;72.30;64.93;;;;;;;2.17;100.00;100283.66;5072313;28;20057;-81
2022/02/02 10:56:44;;;;;;;82.00;73.78;;;;;;;2.19;100.00;100276.47;5060444;28;20040;-84
2022/02/02 11:07:27;;;;;;;86.30;77.50;;;;;;;1.98;100.00;100268.25;5069830;28;20082;-83
2022/02/02 11:09:57;;;;;;;89.35;81.05;;;;;;;2.11;100.00;100278.25;5064870;28;20045;-82
2022/02/02 11:12:30;;;;;;;84.88;76.75;;;;;;;2.20;100.00;100280.72;5074031;28;20566;-80
2022/02/02 11:15:08;;;;;;;84.88;76.82;;;;;;;2.14;100.00;100270.06;5073429;28;20059;-82
2022/02/02 11:17:48;;;;;;;88.10;79.70;;;;;;;2.17;100.00;100262.69;5072498;28;20056;-82
2022/02/02 11:20:17;;;;;;;86.50;77.97;;;;;;;2.17;100.00;100267.13;5074730;28;20451;-83
2022/02/02 11:22:48;;;;;;;78.63;70.65;;;;;;;2.27;100.00;100266.00;5073193;28;20044;-82
2022/02/02 11:25:36;;;;;;;79.53;71.57;;;;;;;2.12;100.00;100258.91;5060429;28;20063;-82
2022/02/02 11:28:22;;;;;;;80.63;72.90;;;;;;;2.22;100.00;100257.00;5065704;28;20044;-82
2022/02/02 11:30:49;;;;;;;76.82;68.97;;;;;;;2.23;100.00;100258.63;5065573;28;20052;-81
2022/02/02 11:33:25;;;;;;;81.30;73.22;;;;;;;2.62;100.00;100260.59;5073264;28;20106;-82
2022/02/02 11:35:56;;;;;;;82.97;74.55;;;;;;;2.33;100.00;100259.28;5071504;28;20086;-83
2022/02/02 11:38:39;;;;;;;82.78;75.18;;;;;;;2.50;100.00;100253.03;5073089;28;20045;-82
2022/02/02 11:44:20;;;;;;;78.03;70.78;;;;;;;2.26;100.00;100239.94;5063126;28;20106;-81
2022/02/02 11:47:05;;;;;;;83.93;75.13;;;;;;;2.64;100.00;100233.22;5070063;28;20076;-81
2022/02/02 11:49:49;;;;;;;87.13;78.95;;;;;;;2.29;100.00;100234.38;5073274;28;20057;-81
2022/02/02 11:52:32;;;;;;;86.15;78.00;;;;;;;2.81;100.00;100236.63;5072084;28;20045;-82
2022/02/02 11:54:59;;;;;;;;;;;;;;;2.71;100.00;100233.38;5070519;28;20040;-82
2022/02/02 11:57:34;;;;;;;69.90;62.83;;;;;;;2.63;100.00;100236.00;5063228;28;19938;-83
2022/02/02 12:00:13;;;;;;;66.93;60.45;;;;;;;2.64;100.00;100227.97;5068704;28;20049;-83
2022/02/02 12:03:05;;;;;;;69.95;62.72;;;;;;;2.98;100.00;100226.91;5074159;28;20048;-82
2022/02/02 12:05:49;;;;;;;68.22;60.92;;;;;;;2.83;100.00;100234.66;5073180;28;20122;-82
2022/02/02 12:08:31;;;;;;;78.28;71.07;;;;;;;2.98;100.00;100232.16;5073749;28;20131;-82
2022/02/02 12:20:21;;;;;;;72.07;66.18;;;;;;;3.12;100.00;100228.84;5079025;28;20136;-82
2022/02/02 12:45:12;;;;;;;77.05;70.10;;;;;;;3.11;100.00;100227.19;5076930;28;20055;-81
2022/02/02 12:47:51;;;;;;;78.75;72.22;;;;;;;2.95;100.00;100222.81;5075632;28;20084;-82
2022/02/02 12:59:35;;;;;;;62.80;56.90;;;;;;;2.92;100.00;100215.28;5057855;28;20168;-82
2022/02/02 13:02:08;;;;;;;62.17;56.05;;;;;;;3.06;100.00;100218.22;5074440;28;20496;-83
2022/02/02 13:04:39;;;;;;;58.58;53.35;;;;;;;3.32;100.00;100210.88;5076067;28;20051;-82
2022/02/02 13:07:13;;;;;;;61.38;55.38;;;;;;;3.11;100.00;100216.69;5077249;28;20060;-82
2022/02/02 13:09:43;;;;;;;77.28;70.68;;;;;;;2.98;100.00;100217.25;5076708;28;20052;-82
2022/02/02 13:12:24;;;;;;;70.25;63.78;;;;;;;3.09;100.00;100213.44;5076706;28;20135;-81
2022/02/02 13:15:16;;;;;;;68.20;62.13;;;;;;;2.98;100.00;100208.56;5063087;28;20074;-81
2022/02/02 13:17:51;;;;;;;69.25;63.10;;;;;;;2.96;100.00;100202.66;5071708;28;20538;-82
2022/02/02 13:20:32;;;;;;;69.05;62.42;;;;;;;2.97;100.00;100204.31;5076267;28;20063;-82
2022/02/02 13:23:10;;;;;;;64.70;58.95;;;;;;;2.92;100.00;100206.59;5075405;28;20160;-82
2022/02/02 13:25:40;;;;;;;63.42;57.80;;;;;;;2.88;100.00;100210.56;5074507;28;20106;-82
2022/02/02 13:28:09;;;;;;;62.97;57.47;;;;;;;2.81;100.00;100202.53;5069149;28;20052;-81
2022/02/02 13:30:43;;;;;;;63.17;57.58;;;;;;;2.81;100.00;100199.09;5076066;28;20110;-82
2022/02/02 13:33:14;;;;;;;60.30;55.42;;;;;;;2.90;100.00;100201.50;5076871;28;20059;-81
2022/02/02 13:35:53;;;;;;;59.17;53.17;;;;;;;2.93;100.00;100213.47;5076367;28;20499;-80
2022/02/02 13:38:39;;;;;;;61.78;56.40;;;;;;;2.92;100.00;100210.03;5074650;28;20120;-85
2022/02/02 13:44:09;;;;;;;63.25;57.78;;;;;;;3.02;100.00;100211.66;5065106;28;20558;-81
2022/02/02 13:46:59;;;;;;;62.85;57.17;;;;;;;2.96;100.00;100213.94;5071845;28;20123;-81
2022/02/02 13:52:34;;;;;;;66.57;60.50;;;;;;;3.45;100.00;100218.22;5070288;28;20068;-82
2022/02/02 13:55:30;;;;;;;61.47;55.80;;;;;;;3.82;100.00;100221.97;5059224;28;20493;-80
2022/02/02 13:58:28;;;;;;;59.15;53.75;;;;;;;3.47;100.00;100218.84;5065567;28;20060;-82
2022/02/02 14:01:01;;;;;;;59.47;53.40;;;;;;;3.63;100.00;100217.94;5066477;28;20051;-82
2022/02/02 14:09:16;;;;;;;57.88;52.25;;;;;;;3.15;100.00;100225.88;4989688;28;20581;-81
2022/02/02 14:25:38;;;;;;;60.38;54.80;;;;;;;3.29;100.00;100224.34;5047439;28;20072;-82
2022/02/02 14:26:07;;;;;;;56.78;51.50;;;;;;;3.10;100.00;100228.19;5069556;28;20113;-82
2022/02/02 14:31:23;;;;;;;56.08;50.67;;;;;;;3.09;100.00;100231.81;5069716;28;20044;-82
2022/02/02 14:33:52;;;;;;;56.40;50.95;;;;;;;3.02;100.00;100220.34;5074170;28;20457;-80
2022/02/02 14:36:23;;;;;;;61.25;53.63;;;;;;;3.24;100.00;100213.56;5073506;28;20056;-80
2022/02/02 14:38:54;;;;;;;59.50;53.00;;;;;;;3.21;100.00;100212.09;5074120;28;20526;-82
2022/02/02 14:41:31;;;;;;;56.20;50.80;;;;;;;3.03;100.00;100210.69;5074499;28;20045;-81
2022/02/02 14:44:02;;;;;;;59.13;53.00;;;;;;;2.99;100.00;100207.56;5067762;28;20047;-80
2022/02/02 14:46:34;;;;;;;64.38;51.53;;;;;;;3.10;100.00;100201.13;5071642;28;20052;-80
2022/02/02 14:49:06;;;;;;;57.70;51.10;;;;;;;2.93;100.00;100206.41;5074551;28;20045;-82
2022/02/02 14:51:48;;;;;;;59.10;52.78;;;;;;;2.95;100.00;100207.06;5073218;28;20048;-80
2022/02/02 15:06:00;;;;;;;63.90;55.20;;;;;;;2.80;100.00;100198.28;5074609;28;20048;-80
2022/02/02 15:28:08;;;;;;;58.78;52.75;;;;;;;5.35;100.00;100203.25;5007661;28;20115;-80
2022/02/02 15:30:46;;;;;;;;;;;;;;;5.74;100.00;100214.22;5057877;28;20052;-79
2022/02/02 15:33:18;;;;;;;58.72;52.65;;;;;;;5.91;100.00;100216.66;5063058;28;20434;-81
2022/02/02 15:35:49;;;;;;;60.97;54.50;;;;;;;6.21;100.00;100212.09;5073981;28;20044;-80
2022/02/02 15:38:21;;;;;;;80.18;55.55;;;;;;;6.36;100.00;100210.19;5073697;28;20139;-80
2022/02/02 15:40:53;;;;;;;;;;;;;;;3.38;100.00;100206.75;5074380;28;20119;-83
2022/02/02 15:43:31;;;;;;;93.35;70.88;;;;;;;2.65;100.00;100206.00;5068888;28;19921;-80
2022/02/02 16:02:46;;;;;;;84.75;61.90;;;;;;;1.65;100.00;100223.66;5073408;28;20055;-78
2022/02/02 16:05:16;;;;;;;101.90;68.60;;;;;;;1.49;100.00;100224.44;5070400;28;20113;-78
2022/02/02 16:07:43;;;;;;;76.60;68.40;;;;;;;1.30;100.00;100230.75;5072772;28;20045;-78
2022/02/02 16:10:17;;;;;;;87.30;70.70;;;;;;;1.39;100.00;100231.56;5072529;28;20484;-77
2022/02/02 16:12:46;;;;;;;89.57;70.50;;;;;;;1.12;100.00;100238.69;5068210;28;20055;-77
2022/02/02 16:15:21;;;;;;;91.68;73.18;;;;;;;1.17;100.00;100232.97;5066466;28;20114;-78
2022/02/02 16:31:53;;;;;;;121.22;79.53;;;;;;;0.81;100.00;100240.13;5062961;28;20055;-81
2022/02/02 16:34:51;;;;;;;144.70;86.43;;;;;;;0.89;100.00;100242.81;5009829;28;20057;-79
2022/02/02 16:37:24;;;;;;;129.30;80.85;;;;;;;0.62;100.00;100241.16;5024529;28;20293;-79
2022/02/02 16:39:53;;;;;;;144.85;90.40;;;;;;;0.64;100.00;100247.88;5022472;28;20045;-81
2022/02/02 16:45:06;;;;;;;150.77;89.40;;;;;;;0.49;100.00;100243.34;5021338;28;20398;-78
2022/02/02 16:47:33;;;;;;;165.23;98.72;;;;;;;0.61;100.00;100247.38;5023991;28;20049;-80
2022/02/02 16:50:01;;;;;;;160.25;93.40;;;;;;;0.77;100.00;100246.66;5023558;28;20104;-79
2022/02/02 16:52:30;;;;;;;143.88;85.28;;;;;;;0.71;100.00;100250.69;5028910;28;20391;-78
2022/02/02 16:55:00;;;;;;;87.55;60.90;;;;;;;0.89;100.00;100254.06;5024887;28;20041;-79
2022/02/02 16:57:39;;;;;;;100.10;67.35;;;;;;;0.82;100.00;100250.44;5026406;28;20473;-78
2022/02/02 17:30:30;;;;;;;170.73;85.18;;;;;;;0.30;100.00;100279.09;5028373;28;20079;-81
2022/02/02 17:33:02;;;;;;;156.68;89.00;;;;;;;0.32;100.00;100278.97;5027851;28;20072;-82
2022/02/02 17:35:37;;;;;;;184.15;92.30;;;;;;;0.57;100.00;100290.44;5022311;28;20060;-78
2022/02/02 17:38:13;;;;;;;190.38;91.35;;;;;;;0.38;100.00;100288.81;5030555;28;20057;-79
2022/02/02 17:40:57;;;;;;;148.73;77.68;;;;;;;0.06;100.00;100289.31;5027122;28;20050;-79